sensor_id;sensor_type;location;lat;lon;timestamp;P1;durP1;ratioP1;P2;durP2;ratioP2
72109;SDS011;59983;52.010;5.420;2023-10-09T00:01:44;24.83;;;14.75;;
72109;SDS011;59983;52.010;5.420;2023-10-09T00:04:12;26.13;;;15.80;;
72109;SDS011;59983;52.010;5.420;2023-10-09T00:06:43;24.37;;;16.00;;
72109;SDS011;59983;52.010;5.420;2023-10-09T00:09:10;27.38;;;15.00;;
72109;SDS011;59983;52.010;5.420;2023-10-09T00:11:49;23.55;;;15.95;;
72109;SDS011;59983;52.010;5.420;2023-10-09T00:14:26;24.48;;;15.73;;
72109;SDS011;59983;52.010;5.420;2023-10-09T00:16:57;27.65;;;16.13;;
72109;SDS011;59983;52.010;5.420;2023-10-09T00:19:48;31.37;;;16.13;;
72109;SDS011;59983;52.010;5.420;2023-10-09T00:22:19;24.42;;;15.85;;
72109;SDS011;59983;52.010;5.420;2023-10-09T00:24:46;23.85;;;15.88;;
72109;SDS011;59983;52.010;5.420;2023-10-09T00:27:16;24.58;;;15.80;;
72109;SDS011;59983;52.010;5.420;2023-10-09T00:29:46;29.98;;;18.25;;
72109;SDS011;59983;52.010;5.420;2023-10-09T00:32:12;31.57;;;17.53;;
72109;SDS011;59983;52.010;5.420;2023-10-09T00:34:49;34.22;;;17.63;;
72109;SDS011;59983;52.010;5.420;2023-10-09T00:37:17;26.30;;;16.05;;
72109;SDS011;59983;52.010;5.420;2023-10-09T00:39:51;27.02;;;16.92;;
72109;SDS011;59983;52.010;5.420;2023-10-09T00:42:24;29.63;;;17.48;;
72109;SDS011;59983;52.010;5.420;2023-10-09T00:44:56;22.87;;;16.30;;
72109;SDS011;59983;52.010;5.420;2023-10-09T00:47:23;27.52;;;16.52;;
72109;SDS011;59983;52.010;5.420;2023-10-09T00:50:03;33.95;;;16.83;;
72109;SDS011;59983;52.010;5.420;2023-10-09T00:52:49;26.67;;;17.15;;
72109;SDS011;59983;52.010;5.420;2023-10-09T00:55:27;24.65;;;16.70;;
72109;SDS011;59983;52.010;5.420;2023-10-09T00:58:11;30.70;;;16.67;;
72109;SDS011;59983;52.010;5.420;2023-10-09T01:00:40;27.42;;;17.95;;
72109;SDS011;59983;52.010;5.420;2023-10-09T01:03:17;30.88;;;17.08;;
72109;SDS011;59983;52.010;5.420;2023-10-09T01:05:50;25.50;;;15.80;;
72109;SDS011;59983;52.010;5.420;2023-10-09T01:08:26;27.80;;;16.67;;
72109;SDS011;59983;52.010;5.420;2023-10-09T01:10:59;28.10;;;17.10;;
72109;SDS011;59983;52.010;5.420;2023-10-09T01:13:36;24.73;;;15.80;;
72109;SDS011;59983;52.010;5.420;2023-10-09T01:16:17;22.13;;;14.27;;
72109;SDS011;59983;52.010;5.420;2023-10-09T01:18:44;22.77;;;14.85;;
72109;SDS011;59983;52.010;5.420;2023-10-09T01:21:16;19.08;;;14.35;;
72109;SDS011;59983;52.010;5.420;2023-10-09T01:23:44;22.23;;;13.23;;
72109;SDS011;59983;52.010;5.420;2023-10-09T01:29:21;22.35;;;15.57;;
72109;SDS011;59983;52.010;5.420;2023-10-09T01:31:55;26.85;;;15.98;;
72109;SDS011;59983;52.010;5.420;2023-10-09T01:37:19;24.07;;;16.27;;
72109;SDS011;59983;52.010;5.420;2023-10-09T01:39:52;26.38;;;17.75;;
72109;SDS011;59983;52.010;5.420;2023-10-09T01:42:24;29.88;;;17.00;;
72109;SDS011;59983;52.010;5.420;2023-10-09T01:45:02;30.88;;;18.13;;
72109;SDS011;59983;52.010;5.420;2023-10-09T01:47:38;26.60;;;17.30;;
72109;SDS011;59983;52.010;5.420;2023-10-09T01:50:05;28.03;;;17.17;;
72109;SDS011;59983;52.010;5.420;2023-10-09T01:52:37;23.33;;;16.33;;
72109;SDS011;59983;52.010;5.420;2023-10-09T01:55:04;28.80;;;17.02;;
72109;SDS011;59983;52.010;5.420;2023-10-09T01:57:33;27.02;;;16.65;;
72109;SDS011;59983;52.010;5.420;2023-10-09T02:00:00;27.13;;;18.42;;
72109;SDS011;59983;52.010;5.420;2023-10-09T02:02:28;31.33;;;18.20;;
72109;SDS011;59983;52.010;5.420;2023-10-09T02:05:09;29.40;;;17.52;;
72109;SDS011;59983;52.010;5.420;2023-10-09T02:07:37;25.85;;;16.60;;
72109;SDS011;59983;52.010;5.420;2023-10-09T02:10:08;27.42;;;17.35;;
72109;SDS011;59983;52.010;5.420;2023-10-09T02:12:48;26.92;;;18.20;;
72109;SDS011;59983;52.010;5.420;2023-10-09T02:15:20;30.80;;;18.83;;
72109;SDS011;59983;52.010;5.420;2023-10-09T02:18:06;27.92;;;17.33;;
72109;SDS011;59983;52.010;5.420;2023-10-09T02:20:46;25.85;;;18.15;;
72109;SDS011;59983;52.010;5.420;2023-10-09T02:23:21;34.75;;;18.42;;
72109;SDS011;59983;52.010;5.420;2023-10-09T02:25:58;29.50;;;17.90;;
72109;SDS011;59983;52.010;5.420;2023-10-09T02:28:29;28.53;;;17.63;;
72109;SDS011;59983;52.010;5.420;2023-10-09T02:30:59;31.58;;;17.25;;
72109;SDS011;59983;52.010;5.420;2023-10-09T02:33:28;27.08;;;16.88;;
72109;SDS011;59983;52.010;5.420;2023-10-09T02:35:55;26.40;;;15.90;;
72109;SDS011;59983;52.010;5.420;2023-10-09T02:38:25;22.83;;;16.10;;
72109;SDS011;59983;52.010;5.420;2023-10-09T02:40:52;22.03;;;15.87;;
72109;SDS011;59983;52.010;5.420;2023-10-09T02:43:45;23.17;;;15.88;;
72109;SDS011;59983;52.010;5.420;2023-10-09T02:46:18;24.10;;;17.08;;
72109;SDS011;59983;52.010;5.420;2023-10-09T02:48:46;23.75;;;17.13;;
72109;SDS011;59983;52.010;5.420;2023-10-09T02:51:24;27.92;;;17.30;;
72109;SDS011;59983;52.010;5.420;2023-10-09T02:54:01;25.10;;;17.43;;
72109;SDS011;59983;52.010;5.420;2023-10-09T02:56:48;27.25;;;17.55;;
72109;SDS011;59983;52.010;5.420;2023-10-09T02:59:23;25.25;;;17.40;;
72109;SDS011;59983;52.010;5.420;2023-10-09T03:01:50;25.88;;;17.60;;
72109;SDS011;59983;52.010;5.420;2023-10-09T03:04:20;27.38;;;17.85;;
72109;SDS011;59983;52.010;5.420;2023-10-09T03:06:50;24.23;;;16.90;;
72109;SDS011;59983;52.010;5.420;2023-10-09T03:09:17;30.05;;;18.23;;
72109;SDS011;59983;52.010;5.420;2023-10-09T03:11:49;25.67;;;17.80;;
72109;SDS011;59983;52.010;5.420;2023-10-09T03:14:20;24.85;;;16.67;;
72109;SDS011;59983;52.010;5.420;2023-10-09T03:16:47;24.48;;;15.88;;
72109;SDS011;59983;52.010;5.420;2023-10-09T03:19:17;26.43;;;17.47;;
72109;SDS011;59983;52.010;5.420;2023-10-09T03:21:43;24.17;;;16.13;;
72109;SDS011;59983;52.010;5.420;2023-10-09T03:24:10;23.98;;;17.27;;
72109;SDS011;59983;52.010;5.420;2023-10-09T03:26:38;24.92;;;17.40;;
72109;SDS011;59983;52.010;5.420;2023-10-09T03:29:04;22.45;;;17.20;;
72109;SDS011;59983;52.010;5.420;2023-10-09T03:31:33;26.77;;;16.40;;
72109;SDS011;59983;52.010;5.420;2023-10-09T03:33:59;26.77;;;18.15;;
72109;SDS011;59983;52.010;5.420;2023-10-09T03:36:26;26.10;;;16.63;;
72109;SDS011;59983;52.010;5.420;2023-10-09T03:38:53;30.13;;;17.55;;
72109;SDS011;59983;52.010;5.420;2023-10-09T03:41:24;29.25;;;17.75;;
72109;SDS011;59983;52.010;5.420;2023-10-09T03:43:53;21.47;;;16.37;;
72109;SDS011;59983;52.010;5.420;2023-10-09T03:46:21;25.17;;;16.92;;
72109;SDS011;59983;52.010;5.420;2023-10-09T03:48:58;25.95;;;17.45;;
72109;SDS011;59983;52.010;5.420;2023-10-09T03:51:28;27.67;;;16.05;;
72109;SDS011;59983;52.010;5.420;2023-10-09T03:53:56;27.42;;;18.98;;
72109;SDS011;59983;52.010;5.420;2023-10-09T03:56:22;22.90;;;17.37;;
72109;SDS011;59983;52.010;5.420;2023-10-09T03:58:49;23.95;;;17.67;;
72109;SDS011;59983;52.010;5.420;2023-10-09T04:01:18;25.25;;;16.85;;
72109;SDS011;59983;52.010;5.420;2023-10-09T04:03:57;22.48;;;15.82;;
72109;SDS011;59983;52.010;5.420;2023-10-09T04:06:27;23.45;;;17.27;;
72109;SDS011;59983;52.010;5.420;2023-10-09T04:09:06;23.90;;;16.90;;
72109;SDS011;59983;52.010;5.420;2023-10-09T04:11:40;24.42;;;16.42;;
72109;SDS011;59983;52.010;5.420;2023-10-09T04:14:13;23.63;;;16.13;;
72109;SDS011;59983;52.010;5.420;2023-10-09T04:17:00;24.00;;;16.40;;
72109;SDS011;59983;52.010;5.420;2023-10-09T04:19:53;20.40;;;15.50;;
72109;SDS011;59983;52.010;5.420;2023-10-09T04:22:38;17.63;;;14.90;;
72109;SDS011;59983;52.010;5.420;2023-10-09T04:25:06;19.98;;;14.77;;
72109;SDS011;59983;52.010;5.420;2023-10-09T04:27:52;22.45;;;15.30;;
72109;SDS011;59983;52.010;5.420;2023-10-09T04:30:46;25.02;;;14.02;;
72109;SDS011;59983;52.010;5.420;2023-10-09T04:33:13;17.95;;;13.30;;
72109;SDS011;59983;52.010;5.420;2023-10-09T04:36:00;19.17;;;13.70;;
72109;SDS011;59983;52.010;5.420;2023-10-09T04:38:47;18.58;;;13.88;;
72109;SDS011;59983;52.010;5.420;2023-10-09T04:41:29;19.58;;;13.95;;
72109;SDS011;59983;52.010;5.420;2023-10-09T04:44:00;22.90;;;13.55;;
72109;SDS011;59983;52.010;5.420;2023-10-09T04:46:46;19.83;;;12.85;;
72109;SDS011;59983;52.010;5.420;2023-10-09T04:49:35;16.00;;;12.80;;
72109;SDS011;59983;52.010;5.420;2023-10-09T04:52:32;18.42;;;14.02;;
72109;SDS011;59983;52.010;5.420;2023-10-09T04:54:59;15.60;;;12.88;;
72109;SDS011;59983;52.010;5.420;2023-10-09T05:02:49;15.60;;;13.87;;
72109;SDS011;59983;52.010;5.420;2023-10-09T05:05:24;15.93;;;12.65;;
72109;SDS011;59983;52.010;5.420;2023-10-09T05:08:05;20.27;;;13.25;;
72109;SDS011;59983;52.010;5.420;2023-10-09T05:10:48;19.77;;;13.45;;
72109;SDS011;59983;52.010;5.420;2023-10-09T05:13:33;23.00;;;13.48;;
72109;SDS011;59983;52.010;5.420;2023-10-09T05:16:17;15.17;;;12.90;;
72109;SDS011;59983;52.010;5.420;2023-10-09T05:18:46;17.70;;;13.90;;
72109;SDS011;59983;52.010;5.420;2023-10-09T05:21:23;22.35;;;13.82;;
72109;SDS011;59983;52.010;5.420;2023-10-09T05:23:57;16.52;;;13.52;;
72109;SDS011;59983;52.010;5.420;2023-10-09T05:29:28;17.70;;;13.47;;
72109;SDS011;59983;52.010;5.420;2023-10-09T05:32:01;20.17;;;14.68;;
72109;SDS011;59983;52.010;5.420;2023-10-09T05:34:41;20.20;;;13.88;;
72109;SDS011;59983;52.010;5.420;2023-10-09T05:37:30;21.23;;;13.82;;
72109;SDS011;59983;52.010;5.420;2023-10-09T05:40:05;21.48;;;13.10;;
72109;SDS011;59983;52.010;5.420;2023-10-09T05:42:45;17.97;;;13.87;;
72109;SDS011;59983;52.010;5.420;2023-10-09T05:45:24;19.35;;;12.77;;
72109;SDS011;59983;52.010;5.420;2023-10-09T05:48:10;19.08;;;12.75;;
72109;SDS011;59983;52.010;5.420;2023-10-09T05:50:40;22.17;;;13.15;;
72109;SDS011;59983;52.010;5.420;2023-10-09T05:53:35;17.85;;;13.57;;
72109;SDS011;59983;52.010;5.420;2023-10-09T05:56:10;18.17;;;12.87;;
72109;SDS011;59983;52.010;5.420;2023-10-09T05:58:56;17.38;;;12.77;;
72109;SDS011;59983;52.010;5.420;2023-10-09T06:01:42;17.60;;;12.50;;
72109;SDS011;59983;52.010;5.420;2023-10-09T06:04:27;18.33;;;14.23;;
72109;SDS011;59983;52.010;5.420;2023-10-09T06:07:12;16.15;;;13.07;;
72109;SDS011;59983;52.010;5.420;2023-10-09T06:09:40;19.67;;;13.73;;
72109;SDS011;59983;52.010;5.420;2023-10-09T06:12:16;17.70;;;12.90;;
72109;SDS011;59983;52.010;5.420;2023-10-09T06:15:02;16.65;;;12.15;;
72109;SDS011;59983;52.010;5.420;2023-10-09T06:17:47;23.25;;;12.98;;
72109;SDS011;59983;52.010;5.420;2023-10-09T06:20:17;20.25;;;12.60;;
72109;SDS011;59983;52.010;5.420;2023-10-09T06:23:12;15.93;;;11.90;;
72109;SDS011;59983;52.010;5.420;2023-10-09T06:25:45;15.30;;;12.13;;
72109;SDS011;59983;52.010;5.420;2023-10-09T06:28:18;15.68;;;12.68;;
72109;SDS011;59983;52.010;5.420;2023-10-09T06:30:59;17.83;;;12.27;;
72109;SDS011;59983;52.010;5.420;2023-10-09T06:33:45;14.07;;;11.95;;
72109;SDS011;59983;52.010;5.420;2023-10-09T06:36:32;16.77;;;12.63;;
72109;SDS011;59983;52.010;5.420;2023-10-09T06:38:58;18.75;;;12.98;;
72109;SDS011;59983;52.010;5.420;2023-10-09T06:41:43;16.08;;;11.35;;
72109;SDS011;59983;52.010;5.420;2023-10-09T06:44:11;14.75;;;12.02;;
72109;SDS011;59983;52.010;5.420;2023-10-09T06:46:58;19.42;;;12.40;;
72109;SDS011;59983;52.010;5.420;2023-10-09T06:49:34;14.50;;;12.13;;
72109;SDS011;59983;52.010;5.420;2023-10-09T06:52:02;18.38;;;11.65;;
72109;SDS011;59983;52.010;5.420;2023-10-09T06:54:42;13.10;;;9.98;;
72109;SDS011;59983;52.010;5.420;2023-10-09T06:57:16;14.82;;;11.13;;
72109;SDS011;59983;52.010;5.420;2023-10-09T07:00:03;18.13;;;11.90;;
72109;SDS011;59983;52.010;5.420;2023-10-09T07:02:56;14.07;;;11.07;;
72109;SDS011;59983;52.010;5.420;2023-10-09T07:05:24;14.77;;;11.65;;
72109;SDS011;59983;52.010;5.420;2023-10-09T07:07:57;14.43;;;10.73;;
72109;SDS011;59983;52.010;5.420;2023-10-09T07:10:44;16.05;;;11.25;;
72109;SDS011;59983;52.010;5.420;2023-10-09T07:13:10;13.70;;;10.65;;
72109;SDS011;59983;52.010;5.420;2023-10-09T07:15:42;11.60;;;10.40;;
72109;SDS011;59983;52.010;5.420;2023-10-09T07:18:27;16.90;;;11.65;;
72109;SDS011;59983;52.010;5.420;2023-10-09T07:21:14;17.05;;;11.52;;
72109;SDS011;59983;52.010;5.420;2023-10-09T07:23:44;15.52;;;11.00;;
72109;SDS011;59983;52.010;5.420;2023-10-09T07:26:15;16.50;;;11.48;;
72109;SDS011;59983;52.010;5.420;2023-10-09T07:28:45;14.40;;;11.80;;
72109;SDS011;59983;52.010;5.420;2023-10-09T07:31:18;15.30;;;10.93;;
72109;SDS011;59983;52.010;5.420;2023-10-09T07:33:51;13.95;;;11.38;;
72109;SDS011;59983;52.010;5.420;2023-10-09T07:36:23;22.27;;;11.25;;
72109;SDS011;59983;52.010;5.420;2023-10-09T07:39:02;16.25;;;11.35;;
72109;SDS011;59983;52.010;5.420;2023-10-09T07:41:40;14.83;;;10.87;;
72109;SDS011;59983;52.010;5.420;2023-10-09T07:44:23;14.80;;;11.00;;
72109;SDS011;59983;52.010;5.420;2023-10-09T07:47:05;15.02;;;10.75;;
72109;SDS011;59983;52.010;5.420;2023-10-09T07:49:45;25.63;;;11.63;;
72109;SDS011;59983;52.010;5.420;2023-10-09T07:52:20;13.70;;;10.32;;
72109;SDS011;59983;52.010;5.420;2023-10-09T07:54:48;17.90;;;11.23;;
72109;SDS011;59983;52.010;5.420;2023-10-09T07:57:28;19.45;;;10.43;;
72109;SDS011;59983;52.010;5.420;2023-10-09T08:00:05;16.63;;;11.23;;
72109;SDS011;59983;52.010;5.420;2023-10-09T08:02:39;18.77;;;11.30;;
72109;SDS011;59983;52.010;5.420;2023-10-09T08:05:06;18.08;;;11.70;;
72109;SDS011;59983;52.010;5.420;2023-10-09T08:07:45;14.80;;;11.03;;
72109;SDS011;59983;52.010;5.420;2023-10-09T08:10:38;13.13;;;10.18;;
72109;SDS011;59983;52.010;5.420;2023-10-09T08:13:24;16.63;;;10.40;;
72109;SDS011;59983;52.010;5.420;2023-10-09T08:16:09;15.32;;;10.68;;
72109;SDS011;59983;52.010;5.420;2023-10-09T08:18:43;12.45;;;10.40;;
72109;SDS011;59983;52.010;5.420;2023-10-09T08:21:11;15.73;;;9.70;;
72109;SDS011;59983;52.010;5.420;2023-10-09T08:23:38;18.13;;;10.52;;
72109;SDS011;59983;52.010;5.420;2023-10-09T08:26:16;17.52;;;10.20;;
72109;SDS011;59983;52.010;5.420;2023-10-09T08:28:55;15.77;;;11.13;;
72109;SDS011;59983;52.010;5.420;2023-10-09T08:31:41;16.98;;;10.60;;
72109;SDS011;59983;52.010;5.420;2023-10-09T08:34:23;15.37;;;10.23;;
72109;SDS011;59983;52.010;5.420;2023-10-09T08:36:55;17.10;;;11.35;;
72109;SDS011;59983;52.010;5.420;2023-10-09T08:39:22;14.38;;;10.63;;
72109;SDS011;59983;52.010;5.420;2023-10-09T08:41:52;15.55;;;11.75;;
72109;SDS011;59983;52.010;5.420;2023-10-09T08:44:25;18.67;;;11.18;;
72109;SDS011;59983;52.010;5.420;2023-10-09T08:46:59;18.70;;;11.93;;
72109;SDS011;59983;52.010;5.420;2023-10-09T08:49:26;16.48;;;12.10;;
72109;SDS011;59983;52.010;5.420;2023-10-09T08:51:54;12.18;;;9.48;;
72109;SDS011;59983;52.010;5.420;2023-10-09T08:54:22;15.25;;;10.30;;
72109;SDS011;59983;52.010;5.420;2023-10-09T08:56:49;14.90;;;11.52;;
72109;SDS011;59983;52.010;5.420;2023-10-09T08:59:17;16.40;;;11.07;;
72109;SDS011;59983;52.010;5.420;2023-10-09T09:01:48;16.13;;;10.57;;
72109;SDS011;59983;52.010;5.420;2023-10-09T09:04:35;13.52;;;10.27;;
72109;SDS011;59983;52.010;5.420;2023-10-09T09:07:27;20.88;;;12.50;;
72109;SDS011;59983;52.010;5.420;2023-10-09T09:09:58;16.60;;;10.77;;
72109;SDS011;59983;52.010;5.420;2023-10-09T09:12:44;17.37;;;10.93;;
72109;SDS011;59983;52.010;5.420;2023-10-09T09:15:14;16.33;;;9.88;;
72109;SDS011;59983;52.010;5.420;2023-10-09T09:17:45;15.75;;;10.13;;
72109;SDS011;59983;52.010;5.420;2023-10-09T09:20:22;20.38;;;10.63;;
72109;SDS011;59983;52.010;5.420;2023-10-09T09:22:55;13.90;;;9.27;;
72109;SDS011;59983;52.010;5.420;2023-10-09T09:25:39;17.47;;;9.17;;
72109;SDS011;59983;52.010;5.420;2023-10-09T09:28:25;15.60;;;10.05;;
72109;SDS011;59983;52.010;5.420;2023-10-09T09:30:53;13.23;;;8.80;;
72109;SDS011;59983;52.010;5.420;2023-10-09T09:33:25;15.25;;;9.35;;
72109;SDS011;59983;52.010;5.420;2023-10-09T09:36:00;15.70;;;9.70;;
72109;SDS011;59983;52.010;5.420;2023-10-09T09:38:31;17.00;;;9.07;;
72109;SDS011;59983;52.010;5.420;2023-10-09T09:41:18;9.93;;;8.60;;
72109;SDS011;59983;52.010;5.420;2023-10-09T09:43:55;12.18;;;8.48;;
72109;SDS011;59983;52.010;5.420;2023-10-09T09:46:28;11.95;;;9.10;;
72109;SDS011;59983;52.010;5.420;2023-10-09T09:49:02;11.65;;;9.13;;
72109;SDS011;59983;52.010;5.420;2023-10-09T09:51:30;14.97;;;8.17;;
72109;SDS011;59983;52.010;5.420;2023-10-09T09:53:57;10.77;;;7.75;;
72109;SDS011;59983;52.010;5.420;2023-10-09T09:56:24;11.77;;;7.50;;
72109;SDS011;59983;52.010;5.420;2023-10-09T09:58:51;11.80;;;7.97;;
72109;SDS011;59983;52.010;5.420;2023-10-09T10:01:26;12.70;;;8.52;;
72109;SDS011;59983;52.010;5.420;2023-10-09T10:03:59;12.57;;;8.47;;
72109;SDS011;59983;52.010;5.420;2023-10-09T10:06:30;16.77;;;8.32;;
72109;SDS011;59983;52.010;5.420;2023-10-09T10:08:59;12.57;;;8.40;;
72109;SDS011;59983;52.010;5.420;2023-10-09T10:11:41;13.52;;;7.50;;
72109;SDS011;59983;52.010;5.420;2023-10-09T10:14:12;15.82;;;8.52;;
72109;SDS011;59983;52.010;5.420;2023-10-09T10:17:01;13.77;;;8.47;;
72109;SDS011;59983;52.010;5.420;2023-10-09T10:22:27;15.38;;;7.22;;
72109;SDS011;59983;52.010;5.420;2023-10-09T10:24:54;9.82;;;6.88;;
72109;SDS011;59983;52.010;5.420;2023-10-09T10:27:21;16.63;;;8.38;;
72109;SDS011;59983;52.010;5.420;2023-10-09T10:32:58;9.23;;;7.13;;
72109;SDS011;59983;52.010;5.420;2023-10-09T10:35:35;13.88;;;7.65;;
72109;SDS011;59983;52.010;5.420;2023-10-09T10:38:32;11.73;;;7.28;;
72109;SDS011;59983;52.010;5.420;2023-10-09T10:41:10;14.23;;;7.88;;
72109;SDS011;59983;52.010;5.420;2023-10-09T10:43:43;13.50;;;7.53;;
72109;SDS011;59983;52.010;5.420;2023-10-09T10:46:17;14.43;;;7.40;;
72109;SDS011;59983;52.010;5.420;2023-10-09T10:48:51;14.20;;;7.53;;
72109;SDS011;59983;52.010;5.420;2023-10-09T10:51:37;12.48;;;6.90;;
72109;SDS011;59983;52.010;5.420;2023-10-09T10:54:05;13.10;;;7.53;;
72109;SDS011;59983;52.010;5.420;2023-10-09T10:56:51;18.70;;;7.37;;
72109;SDS011;59983;52.010;5.420;2023-10-09T10:59:18;9.73;;;6.80;;
72109;SDS011;59983;52.010;5.420;2023-10-09T11:01:55;9.90;;;6.30;;
72109;SDS011;59983;52.010;5.420;2023-10-09T11:04:28;10.85;;;6.63;;
72109;SDS011;59983;52.010;5.420;2023-10-09T11:06:59;10.27;;;6.40;;
72109;SDS011;59983;52.010;5.420;2023-10-09T11:09:52;9.93;;;6.73;;
72109;SDS011;59983;52.010;5.420;2023-10-09T11:12:26;13.93;;;5.97;;
72109;SDS011;59983;52.010;5.420;2023-10-09T11:15:14;8.80;;;5.90;;
72109;SDS011;59983;52.010;5.420;2023-10-09T11:20:57;10.20;;;6.07;;
72109;SDS011;59983;52.010;5.420;2023-10-09T11:23:30;10.27;;;6.57;;
72109;SDS011;59983;52.010;5.420;2023-10-09T11:26:04;8.95;;;5.68;;
72109;SDS011;59983;52.010;5.420;2023-10-09T11:32:16;8.25;;;6.28;;
72109;SDS011;59983;52.010;5.420;2023-10-09T11:34:45;13.48;;;6.07;;
72109;SDS011;59983;52.010;5.420;2023-10-09T11:37:24;9.80;;;6.20;;
72109;SDS011;59983;52.010;5.420;2023-10-09T11:39:57;10.70;;;7.00;;
72109;SDS011;59983;52.010;5.420;2023-10-09T11:42:26;7.45;;;6.10;;
72109;SDS011;59983;52.010;5.420;2023-10-09T11:45:25;13.05;;;6.85;;
72109;SDS011;59983;52.010;5.420;2023-10-09T11:48:16;7.63;;;5.75;;
72109;SDS011;59983;52.010;5.420;2023-10-09T11:50:58;6.93;;;6.13;;
72109;SDS011;59983;52.010;5.420;2023-10-09T11:53:28;8.43;;;6.45;;
72109;SDS011;59983;52.010;5.420;2023-10-09T11:55:55;14.30;;;6.13;;
72109;SDS011;59983;52.010;5.420;2023-10-09T11:58:22;8.38;;;6.47;;
72109;SDS011;59983;52.010;5.420;2023-10-09T12:00:50;7.72;;;5.90;;
72109;SDS011;59983;52.010;5.420;2023-10-09T12:03:17;13.47;;;6.50;;
72109;SDS011;59983;52.010;5.420;2023-10-09T12:05:48;8.55;;;6.32;;
72109;SDS011;59983;52.010;5.420;2023-10-09T12:08:14;7.90;;;5.97;;
72109;SDS011;59983;52.010;5.420;2023-10-09T12:10:42;10.70;;;5.32;;
72109;SDS011;59983;52.010;5.420;2023-10-09T12:13:09;13.90;;;6.20;;
72109;SDS011;59983;52.010;5.420;2023-10-09T12:15:36;8.13;;;6.10;;
72109;SDS011;59983;52.010;5.420;2023-10-09T12:18:08;8.88;;;5.63;;
72109;SDS011;59983;52.010;5.420;2023-10-09T12:20:38;7.10;;;5.18;;
72109;SDS011;59983;52.010;5.420;2023-10-09T12:23:05;9.75;;;5.80;;
72109;SDS011;59983;52.010;5.420;2023-10-09T12:25:33;10.82;;;6.18;;
72109;SDS011;59983;52.010;5.420;2023-10-09T12:28:02;11.33;;;6.23;;
72109;SDS011;59983;52.010;5.420;2023-10-09T12:30:29;12.15;;;5.78;;
72109;SDS011;59983;52.010;5.420;2023-10-09T12:32:56;9.60;;;5.60;;
72109;SDS011;59983;52.010;5.420;2023-10-09T12:35:24;10.57;;;5.95;;
72109;SDS011;59983;52.010;5.420;2023-10-09T12:37:52;9.82;;;5.72;;
72109;SDS011;59983;52.010;5.420;2023-10-09T12:40:21;9.53;;;6.10;;
72109;SDS011;59983;52.010;5.420;2023-10-09T12:42:55;9.55;;;5.75;;
72109;SDS011;59983;52.010;5.420;2023-10-09T12:45:25;9.13;;;6.53;;
72109;SDS011;59983;52.010;5.420;2023-10-09T12:47:55;10.77;;;5.93;;
72109;SDS011;59983;52.010;5.420;2023-10-09T12:50:25;9.00;;;6.22;;
72109;SDS011;59983;52.010;5.420;2023-10-09T12:52:55;11.30;;;6.57;;
72109;SDS011;59983;52.010;5.420;2023-10-09T12:55:22;10.18;;;6.32;;
72109;SDS011;59983;52.010;5.420;2023-10-09T12:58:01;12.40;;;6.03;;
72109;SDS011;59983;52.010;5.420;2023-10-09T13:00:37;9.90;;;5.60;;
72109;SDS011;59983;52.010;5.420;2023-10-09T13:03:10;11.25;;;5.82;;
72109;SDS011;59983;52.010;5.420;2023-10-09T13:05:48;13.03;;;5.93;;
72109;SDS011;59983;52.010;5.420;2023-10-09T13:08:23;7.53;;;5.55;;
72109;SDS011;59983;52.010;5.420;2023-10-09T13:11:01;10.98;;;5.63;;
72109;SDS011;59983;52.010;5.420;2023-10-09T13:13:39;9.65;;;5.78;;
72109;SDS011;59983;52.010;5.420;2023-10-09T13:16:14;8.93;;;5.70;;
72109;SDS011;59983;52.010;5.420;2023-10-09T13:18:55;10.60;;;6.13;;
72109;SDS011;59983;52.010;5.420;2023-10-09T13:23:58;14.07;;;5.43;;
72109;SDS011;59983;52.010;5.420;2023-10-09T13:26:26;11.02;;;6.20;;
72109;SDS011;59983;52.010;5.420;2023-10-09T13:29:00;7.05;;;5.70;;
72109;SDS011;59983;52.010;5.420;2023-10-09T13:31:28;7.23;;;5.60;;
72109;SDS011;59983;52.010;5.420;2023-10-09T13:33:58;8.73;;;5.90;;
72109;SDS011;59983;52.010;5.420;2023-10-09T13:36:25;8.93;;;5.20;;
72109;SDS011;59983;52.010;5.420;2023-10-09T13:39:13;8.38;;;5.43;;
72109;SDS011;59983;52.010;5.420;2023-10-09T13:41:51;9.57;;;5.63;;
72109;SDS011;59983;52.010;5.420;2023-10-09T13:44:27;17.77;;;6.90;;
72109;SDS011;59983;52.010;5.420;2023-10-09T13:47:03;10.40;;;6.28;;
72109;SDS011;59983;52.010;5.420;2023-10-09T13:49:46;13.30;;;5.25;;
72109;SDS011;59983;52.010;5.420;2023-10-09T13:52:17;12.98;;;6.10;;
72109;SDS011;59983;52.010;5.420;2023-10-09T13:54:45;9.15;;;5.90;;
72109;SDS011;59983;52.010;5.420;2023-10-09T13:57:16;8.10;;;5.70;;
72109;SDS011;59983;52.010;5.420;2023-10-09T13:59:43;13.70;;;5.78;;
72109;SDS011;59983;52.010;5.420;2023-10-09T14:02:16;10.30;;;5.85;;
72109;SDS011;59983;52.010;5.420;2023-10-09T14:04:45;9.82;;;6.57;;
72109;SDS011;59983;52.010;5.420;2023-10-09T14:07:13;10.25;;;6.10;;
72109;SDS011;59983;52.010;5.420;2023-10-09T14:09:43;9.47;;;6.00;;
72109;SDS011;59983;52.010;5.420;2023-10-09T14:12:10;8.98;;;5.57;;
72109;SDS011;59983;52.010;5.420;2023-10-09T14:14:38;6.70;;;5.53;;
72109;SDS011;59983;52.010;5.420;2023-10-09T14:17:16;8.88;;;4.85;;
72109;SDS011;59983;52.010;5.420;2023-10-09T14:19:52;9.63;;;5.35;;
72109;SDS011;59983;52.010;5.420;2023-10-09T14:22:20;13.43;;;5.07;;
72109;SDS011;59983;52.010;5.420;2023-10-09T14:24:51;8.25;;;5.25;;
72109;SDS011;59983;52.010;5.420;2023-10-09T14:27:24;9.02;;;5.60;;
72109;SDS011;59983;52.010;5.420;2023-10-09T14:29:53;9.48;;;5.55;;
72109;SDS011;59983;52.010;5.420;2023-10-09T14:32:27;6.93;;;5.43;;
72109;SDS011;59983;52.010;5.420;2023-10-09T14:35:10;10.60;;;5.57;;
72109;SDS011;59983;52.010;5.420;2023-10-09T14:37:40;10.18;;;5.55;;
72109;SDS011;59983;52.010;5.420;2023-10-09T14:40:07;12.90;;;5.93;;
72109;SDS011;59983;52.010;5.420;2023-10-09T14:42:39;12.68;;;5.78;;
72109;SDS011;59983;52.010;5.420;2023-10-09T14:45:10;8.98;;;5.28;;
72109;SDS011;59983;52.010;5.420;2023-10-09T14:47:42;7.33;;;5.00;;
72109;SDS011;59983;52.010;5.420;2023-10-09T14:50:09;10.75;;;5.03;;
72109;SDS011;59983;52.010;5.420;2023-10-09T14:52:36;8.65;;;4.78;;
72109;SDS011;59983;52.010;5.420;2023-10-09T14:55:05;8.13;;;5.18;;
72109;SDS011;59983;52.010;5.420;2023-10-09T14:57:32;11.77;;;5.53;;
72109;SDS011;59983;52.010;5.420;2023-10-09T15:00:00;10.50;;;5.40;;
72109;SDS011;59983;52.010;5.420;2023-10-09T15:02:33;9.23;;;5.40;;
72109;SDS011;59983;52.010;5.420;2023-10-09T15:05:00;9.18;;;5.45;;
72109;SDS011;59983;52.010;5.420;2023-10-09T15:07:26;11.07;;;6.25;;
72109;SDS011;59983;52.010;5.420;2023-10-09T15:10:06;10.40;;;5.78;;
72109;SDS011;59983;52.010;5.420;2023-10-09T15:12:35;13.33;;;6.83;;
72109;SDS011;59983;52.010;5.420;2023-10-09T15:15:09;10.65;;;6.32;;
72109;SDS011;59983;52.010;5.420;2023-10-09T15:17:40;10.73;;;6.30;;
72109;SDS011;59983;52.010;5.420;2023-10-09T15:20:15;10.50;;;7.13;;
72109;SDS011;59983;52.010;5.420;2023-10-09T15:22:42;9.63;;;6.18;;
72109;SDS011;59983;52.010;5.420;2023-10-09T15:25:09;7.53;;;6.37;;
72109;SDS011;59983;52.010;5.420;2023-10-09T15:27:41;12.55;;;6.75;;
72109;SDS011;59983;52.010;5.420;2023-10-09T15:30:09;10.13;;;6.93;;
72109;SDS011;59983;52.010;5.420;2023-10-09T15:32:40;11.68;;;6.38;;
72109;SDS011;59983;52.010;5.420;2023-10-09T15:35:07;14.40;;;6.60;;
72109;SDS011;59983;52.010;5.420;2023-10-09T15:37:36;7.53;;;6.13;;
72109;SDS011;59983;52.010;5.420;2023-10-09T15:40:04;13.48;;;6.78;;